Gran Canaria Sur, Spain
Current Conditions -  °F | °C
As of 10:30 AM on Wednesday 22 Oct 2014 (Local Time) from GCLP Reporting Station
Clear Clear  
Wind Chill: 91°   Ceiling: Unl
Heat Index: 91°   Visibility: 6mi
Dew Point: 34°   Wind: 15mph
Humidity: 13%   Direction: 350°N
Pressure: 30.15"   Gusts: NA
Location:  28°N, 15.6°W
Report Text: GCLP 220930Z 35013KT CAVOK 33/01 Q1021 NOSIG
Loading
Personal Weather Stations






























Interactive Weather Map
Tropical Storm Tracking
New forecast layout! Learn more

10-Day Weather Forecast

Advertisements
Track Severe Weather on mobile